CDT,Max TemperatureF,Mean TemperatureF,Min TemperatureF,Max Dew PointF,MeanDew PointF,Min DewpointF,Max Humidity, Mean Humidity, Min Humidity, Max Sea Level PressureIn, Mean Sea Level PressureIn, Min Sea Level PressureIn, Max VisibilityMiles, Mean VisibilityMiles, Min VisibilityMiles, Max Wind SpeedMPH, Mean Wind SpeedMPH, Max Gust SpeedMPH,PrecipitationIn, CloudCover, Events, WindDirDegrees
2012-10-1,80,72,64,63,58,52,83,64,39,29.93,29.87,29.82,10,10,10,20,10,30,0.00,1,Rain-Thunderstorm,332
2012-10-2,82,75,68,64,60,50,88,65,32,29.99,29.94,29.90,10,10,10,14,6,16,0.00,1,,322
2012-10-3,84,74,64,72,64,55,83,68,48,30.03,29.99,29.96,10,10,10,17,4,23,0.00,1,,143
2012-10-4,86,82,78,73,72,70,79,73,62,30.11,30.06,30.01,10,10,10,21,16,28,0.00,3,,160
2012-10-5,84,80,77,72,69,66,78,70,62,30.11,30.05,29.99,10,10,10,13,10,18,0.00,1,,153
2012-10-6,84,80,77,68,66,64,74,63,51,30.02,29.97,29.92,10,10,10,12,8,17,0.00,2,,127
2012-10-7,77,68,60,66,57,54,88,74,64,30.15,30.09,30.00,10,10,10,25,17,32,0.00,7,,23
2012-10-8,68,64,59,61,52,48,83,68,56,30.22,30.15,30.10,10,10,10,21,14,25,0.00,7,,23
2012-10-9,82,74,66,72,68,61,83,74,65,30.11,30.02,29.96,10,10,10,15,10,21,0.00,4,,137
2012-10-10,84,80,77,77,74,68,94,83,62,30.09,30.03,29.96,10,9,3,20,11,24,0.00,2,Rain,135
2012-10-11,86,82,78,75,73,72,89,79,66,30.13,30.08,30.04,10,10,7,16,11,22,0.00,2,,137
2012-10-12,86,82,77,75,73,72,89,79,66,30.16,30.10,30.07,10,10,10,17,11,23,0.00,2,,134
2012-10-13,86,82,78,77,73,70,84,78,70,30.09,30.02,29.94,10,8,7,22,15,29,0.00,2,,156
2012-10-14,84,80,77,73,72,70,83,76,66,30.06,30.00,29.93,10,9,7,18,12,25,0.00,3,,168
2012-10-15,80,78,75,73,68,63,89,73,54,30.08,30.02,29.96,10,10,10,14,7,18,0.00,1,,57
2012-10-16,80,76,71,73,70,64,94,77,65,29.99,29.87,29.78,10,10,1,16,8,22,0.31,3,Rain,121
2012-10-17,84,80,75,77,73,72,94,81,70,29.80,29.73,29.64,10,9,7,22,12,29,0.00,1,,180
2012-10-18,84,80,77,77,74,64,100,85,65,29.92,29.80,29.70,10,8,4,22,10,29,0.00,5,,110
2012-10-19,78,74,69,63,59,55,68,57,44,30.03,29.96,29.92,10,10,10,17,13,26,0.00,2,,67
2012-10-20,84,80,77,75,72,63,89,78,61,29.95,29.90,29.84,10,10,10,15,11,21,0.00,1,Rain,156
2012-10-21,84,80,77,75,74,73,89,81,70,29.96,29.91,29.87,10,9,7,16,11,21,0.00,1,,157
2012-10-22,84,80,77,75,73,70,94,79,66,29.99,29.94,29.91,10,9,5,17,13,24,0.07,2,Rain,147
2012-10-23,82,80,77,72,69,68,78,71,62,29.98,29.95,29.92,10,10,10,15,12,22,0.00,1,,144
2012-10-24,82,80,77,72,69,68,78,72,62,29.99,29.93,29.89,10,10,10,14,10,18,0.00,1,,149
2012-10-25,84,80,77,73,72,70,83,78,70,29.91,29.87,29.83,10,10,10,15,11,21,0.00,1,,154
2012-10-26,78,66,55,73,59,48,94,76,56,30.18,30.04,29.91,10,10,5,28,13,34,0.02,7,Rain,17
2012-10-27,64,58,53,48,42,39,77,58,42,30.27,30.18,30.10,10,10,10,29,18,34,0.00,7,,2
2012-10-28,66,60,55,48,41,34,67,50,32,30.27,30.21,30.17,10,10,10,15,11,22,0.00,5,,30
2012-10-29,69,62,55,50,45,39,77,53,35,30.28,30.21,30.16,10,10,10,15,9,18,0.00,2,,48
2012-10-30,77,70,64,63,56,46,73,59,47,30.16,30.06,29.99,10,10,10,12,7,16,0.00,0,,162
2012-10-31,80,74,68,72,68,64,94,81,65,30.06,30.01,29.96,10,10,7,14,5,,0.00,1,Thunderstorm,138